Terminal Aerodrome Forecast
Issued by NWS Indianapolis, IN

Home | Current Version | Previous Version | Text Only | Print | Product List | Glossary On
Versions: 1 2 3 4 5 6 7 8 9 10 11 12 13 14 15 16 17 18 19 20 21 22 23 24 25 26 27
000
FTUS43 KIND 260200 AAB
TAFIND
TAF AMD
KIND 260205Z 2602/2706 18008KT P6SM FEW025 BKN200
     FM260500 18008KT P6SM OVC025
     FM260900 19008KT 4SM BR OVC007
      TEMPO 2609/2612 3SM -DZ
     FM261500 19012G20KT P6SM BKN025
     FM261900 19013G23KT P6SM VCSH BKN035=

USA.gov is the U.S. government's official web portal to all federal, state and local government web resources and services.